sensor_id;sensor_type;location;lat;lon;timestamp;pressure;altitude;pressure_sealevel;temperature;humidity
2675;BME280;1347;42.122;24.746;2023-04-06T00:00:32;99362.78;;;3.94;72.03
2675;BME280;1347;42.122;24.746;2023-04-06T00:03:00;99358.09;;;4.03;71.54
2675;BME280;1347;42.122;24.746;2023-04-06T00:05:28;99365.75;;;4.01;71.85
2675;BME280;1347;42.122;24.746;2023-04-06T00:07:57;99356.56;;;3.93;71.69
2675;BME280;1347;42.122;24.746;2023-04-06T00:10:24;99349.56;;;3.92;71.89
2675;BME280;1347;42.122;24.746;2023-04-06T00:12:51;99359.94;;;3.90;71.71
2675;BME280;1347;42.122;24.746;2023-04-06T00:15:19;99350.13;;;3.77;72.15
2675;BME280;1347;42.122;24.746;2023-04-06T00:17:46;99347.88;;;3.79;72.40
2675;BME280;1347;42.122;24.746;2023-04-06T00:20:14;99345.31;;;3.83;71.98
2675;BME280;1347;42.122;24.746;2023-04-06T00:22:41;99355.41;;;3.74;72.58
2675;BME280;1347;42.122;24.746;2023-04-06T00:25:08;99340.59;;;3.71;72.85
2675;BME280;1347;42.122;24.746;2023-04-06T00:27:36;99352.72;;;3.74;72.17
2675;BME280;1347;42.122;24.746;2023-04-06T00:30:06;99352.72;;;3.74;72.00
2675;BME280;1347;42.122;24.746;2023-04-06T00:32:34;99346.34;;;3.69;71.51
2675;BME280;1347;42.122;24.746;2023-04-06T00:35:02;99339.38;;;3.60;72.14
2675;BME280;1347;42.122;24.746;2023-04-06T00:37:31;99343.41;;;3.54;72.12
2675;BME280;1347;42.122;24.746;2023-04-06T00:39:58;99343.91;;;3.47;72.25
2675;BME280;1347;42.122;24.746;2023-04-06T00:42:25;99346.50;;;3.44;72.18
2675;BME280;1347;42.122;24.746;2023-04-06T00:44:52;99346.97;;;3.37;72.49
2675;BME280;1347;42.122;24.746;2023-04-06T00:47:20;99342.28;;;3.25;73.03
2675;BME280;1347;42.122;24.746;2023-04-06T00:49:47;99334.16;;;3.25;72.92
2675;BME280;1347;42.122;24.746;2023-04-06T00:52:15;99336.38;;;3.23;72.83
2675;BME280;1347;42.122;24.746;2023-04-06T00:54:43;99335.13;;;3.21;73.09
2675;BME280;1347;42.122;24.746;2023-04-06T00:57:11;99331.94;;;3.19;73.10
2675;BME280;1347;42.122;24.746;2023-04-06T00:59:38;99331.31;;;3.13;73.11
2675;BME280;1347;42.122;24.746;2023-04-06T01:02:05;99316.50;;;3.11;72.99
2675;BME280;1347;42.122;24.746;2023-04-06T01:04:32;99330.53;;;3.13;72.83
2675;BME280;1347;42.122;24.746;2023-04-06T01:07:00;99320.19;;;3.06;73.15
2675;BME280;1347;42.122;24.746;2023-04-06T01:09:27;99321.13;;;3.10;72.93
2675;BME280;1347;42.122;24.746;2023-04-06T01:11:56;99318.44;;;3.10;73.28
2675;BME280;1347;42.122;24.746;2023-04-06T01:14:23;99315.56;;;3.07;73.20
2675;BME280;1347;42.122;24.746;2023-04-06T01:16:51;99313.38;;;3.00;73.25
2675;BME280;1347;42.122;24.746;2023-04-06T01:19:18;99312.88;;;2.98;73.31
2675;BME280;1347;42.122;24.746;2023-04-06T01:21:46;99297.44;;;2.99;73.04
2675;BME280;1347;42.122;24.746;2023-04-06T01:24:16;99302.53;;;3.00;73.02
2675;BME280;1347;42.122;24.746;2023-04-06T01:26:43;99305.44;;;2.95;72.86
2675;BME280;1347;42.122;24.746;2023-04-06T01:29:10;99302.38;;;2.96;72.75
2675;BME280;1347;42.122;24.746;2023-04-06T01:31:37;99298.88;;;2.96;73.08
2675;BME280;1347;42.122;24.746;2023-04-06T01:34:04;99297.63;;;2.93;73.06
2675;BME280;1347;42.122;24.746;2023-04-06T01:36:31;99289.97;;;2.95;72.89
2675;BME280;1347;42.122;24.746;2023-04-06T01:38:58;99288.53;;;2.98;72.84
2675;BME280;1347;42.122;24.746;2023-04-06T01:41:27;99279.59;;;2.97;72.78
2675;BME280;1347;42.122;24.746;2023-04-06T01:43:54;99286.81;;;2.93;73.23
2675;BME280;1347;42.122;24.746;2023-04-06T01:46:21;99285.22;;;2.92;73.41
2675;BME280;1347;42.122;24.746;2023-04-06T01:48:48;99283.63;;;2.91;73.05
2675;BME280;1347;42.122;24.746;2023-04-06T01:51:15;99279.81;;;2.92;73.44
2675;BME280;1347;42.122;24.746;2023-04-06T01:53:42;99279.50;;;2.85;74.01
2675;BME280;1347;42.122;24.746;2023-04-06T01:56:09;99276.63;;;2.90;73.89
2675;BME280;1347;42.122;24.746;2023-04-06T01:58:38;99270.59;;;2.85;73.81
2675;BME280;1347;42.122;24.746;2023-04-06T02:01:05;99270.91;;;2.83;74.13
2675;BME280;1347;42.122;24.746;2023-04-06T02:03:32;99273.31;;;2.85;74.47
2675;BME280;1347;42.122;24.746;2023-04-06T02:05:59;99276.66;;;2.82;74.84
2675;BME280;1347;42.122;24.746;2023-04-06T02:08:26;99273.16;;;2.81;75.18
2675;BME280;1347;42.122;24.746;2023-04-06T02:10:53;99273.00;;;2.78;75.50
2675;BME280;1347;42.122;24.746;2023-04-06T02:13:20;99256.63;;;2.74;75.27
2675;BME280;1347;42.122;24.746;2023-04-06T02:15:48;99267.78;;;2.73;75.61
2675;BME280;1347;42.122;24.746;2023-04-06T02:18:15;99272.72;;;2.71;76.10
2675;BME280;1347;42.122;24.746;2023-04-06T02:20:43;99275.88;;;2.73;76.21
2675;BME280;1347;42.122;24.746;2023-04-06T02:23:11;99273.19;;;2.73;75.74
2675;BME280;1347;42.122;24.746;2023-04-06T02:25:38;99275.88;;;2.73;75.95
2675;BME280;1347;42.122;24.746;2023-04-06T02:28:05;99278.13;;;2.71;75.90
2675;BME280;1347;42.122;24.746;2023-04-06T02:30:32;99278.28;;;2.74;76.11
2675;BME280;1347;42.122;24.746;2023-04-06T02:33:01;99279.06;;;2.75;76.38
2675;BME280;1347;42.122;24.746;2023-04-06T02:35:28;99284.31;;;2.71;76.17
2675;BME280;1347;42.122;24.746;2023-04-06T02:37:55;99286.56;;;2.69;76.17
2675;BME280;1347;42.122;24.746;2023-04-06T02:40:22;99284.31;;;2.71;76.16
2675;BME280;1347;42.122;24.746;2023-04-06T02:42:49;99291.19;;;2.69;75.67
2675;BME280;1347;42.122;24.746;2023-04-06T02:45:16;99293.28;;;2.63;75.74
2675;BME280;1347;42.122;24.746;2023-04-06T02:47:43;99286.91;;;2.59;75.66
2675;BME280;1347;42.122;24.746;2023-04-06T02:50:11;99288.19;;;2.62;75.42
2675;BME280;1347;42.122;24.746;2023-04-06T02:52:38;99287.06;;;2.63;75.16
2675;BME280;1347;42.122;24.746;2023-04-06T02:55:06;99277.66;;;2.60;75.23
2675;BME280;1347;42.122;24.746;2023-04-06T02:57:33;99281.66;;;2.63;75.40
2675;BME280;1347;42.122;24.746;2023-04-06T03:00:01;99280.53;;;2.64;75.28
2675;BME280;1347;42.122;24.746;2023-04-06T03:02:28;99284.19;;;2.59;75.33
2675;BME280;1347;42.122;24.746;2023-04-06T03:04:55;99280.53;;;2.64;75.28
2675;BME280;1347;42.122;24.746;2023-04-06T03:07:23;99286.09;;;2.58;75.45
2675;BME280;1347;42.122;24.746;2023-04-06T03:09:50;99276.72;;;2.56;75.37
2675;BME280;1347;42.122;24.746;2023-04-06T03:12:17;99277.66;;;2.60;75.33
2675;BME280;1347;42.122;24.746;2023-04-06T03:14:44;99281.81;;;2.57;75.47
2675;BME280;1347;42.122;24.746;2023-04-06T03:17:11;99286.91;;;2.59;75.49
2675;BME280;1347;42.122;24.746;2023-04-06T03:19:38;99282.59;;;2.58;75.17
2675;BME280;1347;42.122;24.746;2023-04-06T03:22:05;99269.41;;;2.56;75.58
2675;BME280;1347;42.122;24.746;2023-04-06T03:24:34;99285.50;;;2.53;75.47
2675;BME280;1347;42.122;24.746;2023-04-06T03:27:00;99275.47;;;2.53;75.61
2675;BME280;1347;42.122;24.746;2023-04-06T03:29:28;99287.56;;;2.47;75.75
2675;BME280;1347;42.122;24.746;2023-04-06T03:31:55;99284.25;;;2.42;76.74
2675;BME280;1347;42.122;24.746;2023-04-06T03:34:22;99281.84;;;2.40;76.67
2675;BME280;1347;42.122;24.746;2023-04-06T03:36:49;99287.09;;;2.37;77.01
2675;BME280;1347;42.122;24.746;2023-04-06T03:39:16;99292.50;;;2.37;76.79
2675;BME280;1347;42.122;24.746;2023-04-06T03:41:44;99291.88;;;2.31;77.08
2675;BME280;1347;42.122;24.746;2023-04-06T03:44:11;99287.28;;;2.32;76.97
2675;BME280;1347;42.122;24.746;2023-04-06T03:46:38;99291.88;;;2.40;76.94
2675;BME280;1347;42.122;24.746;2023-04-06T03:49:05;99286.47;;;2.40;77.00
2675;BME280;1347;42.122;24.746;2023-04-06T03:51:32;99291.56;;;2.41;77.11
2675;BME280;1347;42.122;24.746;2023-04-06T03:53:59;99291.56;;;2.41;77.05
2675;BME280;1347;42.122;24.746;2023-04-06T03:56:26;99284.03;;;2.55;77.12
2675;BME280;1347;42.122;24.746;2023-04-06T03:58:55;99290.09;;;2.61;76.05
2675;BME280;1347;42.122;24.746;2023-04-06T04:01:22;99288.94;;;2.71;76.37
2675;BME280;1347;42.122;24.746;2023-04-06T04:03:49;99298.03;;;2.75;75.76
2675;BME280;1347;42.122;24.746;2023-04-06T04:06:16;99289.88;;;2.83;75.57
2675;BME280;1347;42.122;24.746;2023-04-06T04:08:43;99300.97;;;2.90;75.52
2675;BME280;1347;42.122;24.746;2023-04-06T04:11:10;99291.09;;;2.94;74.90
2675;BME280;1347;42.122;24.746;2023-04-06T04:13:37;99290.91;;;3.00;74.82
2675;BME280;1347;42.122;24.746;2023-04-06T04:16:06;99293.09;;;3.06;74.24
2675;BME280;1347;42.122;24.746;2023-04-06T04:18:33;99281.16;;;3.07;74.56
2675;BME280;1347;42.122;24.746;2023-04-06T04:21:00;99283.81;;;3.16;74.49
2675;BME280;1347;42.122;24.746;2023-04-06T04:23:27;99287.81;;;3.18;74.13
2675;BME280;1347;42.122;24.746;2023-04-06T04:25:54;99291.47;;;3.22;74.18
2675;BME280;1347;42.122;24.746;2023-04-06T04:28:21;99293.66;;;3.29;74.06
2675;BME280;1347;42.122;24.746;2023-04-06T04:30:48;99294.59;;;3.33;73.68
2675;BME280;1347;42.122;24.746;2023-04-06T04:33:16;99290.75;;;3.34;73.64
2675;BME280;1347;42.122;24.746;2023-04-06T04:35:43;99292.31;;;3.44;73.35
2675;BME280;1347;42.122;24.746;2023-04-06T04:38:10;99287.16;;;3.51;72.94
2675;BME280;1347;42.122;24.746;2023-04-06T04:40:37;99281.09;;;3.54;72.97
2675;BME280;1347;42.122;24.746;2023-04-06T04:43:04;99281.03;;;3.62;72.85
2675;BME280;1347;42.122;24.746;2023-04-06T04:45:31;99277.31;;;3.67;72.58
2675;BME280;1347;42.122;24.746;2023-04-06T04:47:58;99278.00;;;3.64;72.17
2675;BME280;1347;42.122;24.746;2023-04-06T04:50:26;99284.31;;;3.68;72.22
2675;BME280;1347;42.122;24.746;2023-04-06T04:52:53;99284.16;;;3.73;72.43
2675;BME280;1347;42.122;24.746;2023-04-06T04:55:20;99281.50;;;3.85;71.79
2675;BME280;1347;42.122;24.746;2023-04-06T04:57:47;99278.25;;;3.92;71.76
2675;BME280;1347;42.122;24.746;2023-04-06T05:00:15;99274.63;;;3.88;71.11
2675;BME280;1347;42.122;24.746;2023-04-06T05:02:42;99270.13;;;3.92;71.24
2675;BME280;1347;42.122;24.746;2023-04-06T05:05:09;99269.41;;;4.03;70.76
2675;BME280;1347;42.122;24.746;2023-04-06T05:07:37;99271.31;;;4.03;70.34
2675;BME280;1347;42.122;24.746;2023-04-06T05:10:05;99267.53;;;4.16;69.86
2675;BME280;1347;42.122;24.746;2023-04-06T05:12:32;99263.00;;;4.20;70.08
2675;BME280;1347;42.122;24.746;2023-04-06T05:14:59;99256.59;;;4.25;69.20
2675;BME280;1347;42.122;24.746;2023-04-06T05:17:26;99264.56;;;4.42;68.63
2675;BME280;1347;42.122;24.746;2023-04-06T05:19:53;99249.03;;;4.63;68.18
2675;BME280;1347;42.122;24.746;2023-04-06T05:22:20;99263.41;;;4.76;67.94
2675;BME280;1347;42.122;24.746;2023-04-06T05:24:49;99247.47;;;4.87;67.16
2675;BME280;1347;42.122;24.746;2023-04-06T05:27:16;99261.28;;;4.94;67.08
2675;BME280;1347;42.122;24.746;2023-04-06T05:29:43;99252.13;;;4.98;66.94
2675;BME280;1347;42.122;24.746;2023-04-06T05:32:10;99256.19;;;5.04;66.61
2675;BME280;1347;42.122;24.746;2023-04-06T05:34:37;99253.03;;;5.14;67.08
2675;BME280;1347;42.122;24.746;2023-04-06T05:37:04;99251.00;;;5.36;66.68
2675;BME280;1347;42.122;24.746;2023-04-06T05:39:31;99258.34;;;5.47;66.36
2675;BME280;1347;42.122;24.746;2023-04-06T05:42:03;99246.38;;;5.76;65.08
2675;BME280;1347;42.122;24.746;2023-04-06T05:44:30;99260.88;;;5.93;65.03
2675;BME280;1347;42.122;24.746;2023-04-06T05:46:57;99257.78;;;6.06;65.23
2675;BME280;1347;42.122;24.746;2023-04-06T05:49:24;99249.91;;;6.17;63.51
2675;BME280;1347;42.122;24.746;2023-04-06T05:51:51;99243.88;;;6.23;63.63
2675;BME280;1347;42.122;24.746;2023-04-06T05:54:18;99244.34;;;6.41;63.67
2675;BME280;1347;42.122;24.746;2023-04-06T05:56:45;99261.06;;;6.55;63.04
2675;BME280;1347;42.122;24.746;2023-04-06T05:59:13;99252.16;;;6.71;63.04
2675;BME280;1347;42.122;24.746;2023-04-06T06:01:40;99240.28;;;6.94;61.82
2675;BME280;1347;42.122;24.746;2023-04-06T06:04:07;99249.59;;;7.09;61.44
2675;BME280;1347;42.122;24.746;2023-04-06T06:06:34;99249.38;;;7.33;61.21
2675;BME280;1347;42.122;24.746;2023-04-06T06:09:02;99222.25;;;7.56;60.20
2675;BME280;1347;42.122;24.746;2023-04-06T06:11:29;99235.56;;;8.16;58.92
2675;BME280;1347;42.122;24.746;2023-04-06T06:13:56;99239.34;;;9.14;56.95
2675;BME280;1347;42.122;24.746;2023-04-06T06:16:24;99231.66;;;9.76;55.35
2675;BME280;1347;42.122;24.746;2023-04-06T06:18:52;99239.09;;;10.80;52.38
2675;BME280;1347;42.122;24.746;2023-04-06T06:21:19;99224.72;;;12.06;48.80
2675;BME280;1347;42.122;24.746;2023-04-06T06:23:46;99225.53;;;12.18;49.05
2675;BME280;1347;42.122;24.746;2023-04-06T06:26:15;99230.78;;;13.57;46.34
2675;BME280;1347;42.122;24.746;2023-04-06T06:28:42;99224.38;;;14.03;46.05
2675;BME280;1347;42.122;24.746;2023-04-06T06:31:10;99227.78;;;16.51;41.40
2675;BME280;1347;42.122;24.746;2023-04-06T06:33:39;99226.19;;;15.90;39.91
2675;BME280;1347;42.122;24.746;2023-04-06T06:36:07;99235.81;;;16.42;38.89
2675;BME280;1347;42.122;24.746;2023-04-06T06:38:34;99242.19;;;15.68;39.66
2675;BME280;1347;42.122;24.746;2023-04-06T06:41:01;99225.84;;;17.29;37.69
2675;BME280;1347;42.122;24.746;2023-04-06T06:43:28;99234.13;;;19.39;35.40
2675;BME280;1347;42.122;24.746;2023-04-06T06:45:56;99226.38;;;18.26;34.73
2675;BME280;1347;42.122;24.746;2023-04-06T06:48:24;99225.09;;;17.91;35.63
2675;BME280;1347;42.122;24.746;2023-04-06T06:50:53;99216.72;;;18.15;36.26
2675;BME280;1347;42.122;24.746;2023-04-06T06:53:21;99214.66;;;16.86;36.17
2675;BME280;1347;42.122;24.746;2023-04-06T06:55:48;99212.16;;;18.80;35.08
2675;BME280;1347;42.122;24.746;2023-04-06T06:58:18;99224.34;;;20.63;32.67
2675;BME280;1347;42.122;24.746;2023-04-06T07:00:45;99225.44;;;20.40;32.35
2675;BME280;1347;42.122;24.746;2023-04-06T07:03:12;99221.78;;;21.19;31.54
2675;BME280;1347;42.122;24.746;2023-04-06T07:05:45;99221.34;;;20.96;31.83
2675;BME280;1347;42.122;24.746;2023-04-06T07:08:19;99220.44;;;21.11;31.41
2675;BME280;1347;42.122;24.746;2023-04-06T07:10:46;99225.50;;;21.85;30.33
2675;BME280;1347;42.122;24.746;2023-04-06T07:13:13;99220.34;;;22.18;30.68
2675;BME280;1347;42.122;24.746;2023-04-06T07:15:44;99231.75;;;22.33;30.04
2675;BME280;1347;42.122;24.746;2023-04-06T07:18:11;99217.53;;;21.27;30.37
2675;BME280;1347;42.122;24.746;2023-04-06T07:20:39;99223.91;;;21.03;31.53
2675;BME280;1347;42.122;24.746;2023-04-06T07:23:06;99206.53;;;20.73;31.00
2675;BME280;1347;42.122;24.746;2023-04-06T07:25:34;99215.66;;;22.68;30.17
2675;BME280;1347;42.122;24.746;2023-04-06T07:28:02;99219.38;;;22.65;29.28
2675;BME280;1347;42.122;24.746;2023-04-06T07:30:29;99223.25;;;24.39;28.98
2675;BME280;1347;42.122;24.746;2023-04-06T07:32:56;99220.13;;;25.45;26.68
2675;BME280;1347;42.122;24.746;2023-04-06T07:35:25;99229.00;;;24.26;27.07
2675;BME280;1347;42.122;24.746;2023-04-06T07:37:52;99228.06;;;23.93;26.99
2675;BME280;1347;42.122;24.746;2023-04-06T07:40:19;99228.53;;;24.18;26.57
2675;BME280;1347;42.122;24.746;2023-04-06T07:42:48;99227.16;;;24.83;27.20
2675;BME280;1347;42.122;24.746;2023-04-06T07:45:15;99205.38;;;25.35;26.22
2675;BME280;1347;42.122;24.746;2023-04-06T07:47:42;99218.88;;;26.08;25.94
2675;BME280;1347;42.122;24.746;2023-04-06T07:50:10;99226.53;;;27.51;25.46
2675;BME280;1347;42.122;24.746;2023-04-06T07:52:38;99212.78;;;29.08;23.73
2675;BME280;1347;42.122;24.746;2023-04-06T07:55:05;99236.22;;;28.57;24.20
2675;BME280;1347;42.122;24.746;2023-04-06T07:57:32;99216.75;;;28.59;23.78
2675;BME280;1347;42.122;24.746;2023-04-06T08:00:01;99221.59;;;29.75;23.55
2675;BME280;1347;42.122;24.746;2023-04-06T08:02:29;99218.38;;;29.45;23.34
2675;BME280;1347;42.122;24.746;2023-04-06T08:04:56;99207.56;;;28.64;22.85
2675;BME280;1347;42.122;24.746;2023-04-06T08:07:23;99233.72;;;28.90;23.29
2675;BME280;1347;42.122;24.746;2023-04-06T08:09:51;99220.53;;;27.78;24.15
2675;BME280;1347;42.122;24.746;2023-04-06T08:12:18;99222.94;;;28.63;23.88
2675;BME280;1347;42.122;24.746;2023-04-06T08:14:45;99207.66;;;28.18;23.25
2675;BME280;1347;42.122;24.746;2023-04-06T08:17:13;99215.25;;;28.95;22.35
2675;BME280;1347;42.122;24.746;2023-04-06T08:19:42;99210.41;;;30.03;22.47
2675;BME280;1347;42.122;24.746;2023-04-06T08:22:09;99209.97;;;30.88;22.13
2675;BME280;1347;42.122;24.746;2023-04-06T08:24:36;99206.31;;;31.04;22.08
2675;BME280;1347;42.122;24.746;2023-04-06T08:27:03;99206.19;;;31.71;22.04
2675;BME280;1347;42.122;24.746;2023-04-06T08:29:31;99214.19;;;34.01;21.08
2675;BME280;1347;42.122;24.746;2023-04-06T08:31:58;99198.06;;;32.74;21.04
2675;BME280;1347;42.122;24.746;2023-04-06T08:34:26;99197.34;;;31.86;20.87
2675;BME280;1347;42.122;24.746;2023-04-06T08:36:53;99190.75;;;29.60;22.38
2675;BME280;1347;42.122;24.746;2023-04-06T08:39:20;99196.06;;;30.46;21.68
2675;BME280;1347;42.122;24.746;2023-04-06T08:41:51;99192.28;;;31.57;21.71
2675;BME280;1347;42.122;24.746;2023-04-06T08:44:18;99191.44;;;33.15;20.81
2675;BME280;1347;42.122;24.746;2023-04-06T08:46:46;99186.84;;;32.87;21.01
2675;BME280;1347;42.122;24.746;2023-04-06T08:49:14;99185.94;;;32.74;20.71
2675;BME280;1347;42.122;24.746;2023-04-06T08:51:44;99171.50;;;31.37;21.48
2675;BME280;1347;42.122;24.746;2023-04-06T08:54:11;99162.63;;;32.15;21.09
2675;BME280;1347;42.122;24.746;2023-04-06T08:56:39;99170.56;;;33.12;20.88
2675;BME280;1347;42.122;24.746;2023-04-06T08:59:06;99179.84;;;33.13;20.66
2675;BME280;1347;42.122;24.746;2023-04-06T09:01:38;99164.88;;;32.88;20.37
2675;BME280;1347;42.122;24.746;2023-04-06T09:04:07;99168.97;;;33.60;20.11
2675;BME280;1347;42.122;24.746;2023-04-06T09:06:36;99170.81;;;33.14;19.87
2675;BME280;1347;42.122;24.746;2023-04-06T09:09:05;99144.78;;;32.26;20.64
2675;BME280;1347;42.122;24.746;2023-04-06T09:11:45;99159.06;;;32.99;20.89
2675;BME280;1347;42.122;24.746;2023-04-06T09:14:12;99151.16;;;33.16;20.83
2675;BME280;1347;42.122;24.746;2023-04-06T09:16:41;99157.00;;;34.05;20.12
2675;BME280;1347;42.122;24.746;2023-04-06T09:19:09;99147.16;;;31.75;19.71
2675;BME280;1347;42.122;24.746;2023-04-06T09:21:36;99144.09;;;32.44;21.01
2675;BME280;1347;42.122;24.746;2023-04-06T09:24:07;99149.56;;;33.83;20.06
2675;BME280;1347;42.122;24.746;2023-04-06T09:26:44;99148.38;;;34.74;19.92
2675;BME280;1347;42.122;24.746;2023-04-06T09:29:22;99132.84;;;34.30;20.27
2675;BME280;1347;42.122;24.746;2023-04-06T09:31:49;99138.97;;;32.73;20.07
2675;BME280;1347;42.122;24.746;2023-04-06T09:34:21;99126.81;;;33.83;20.02
2675;BME280;1347;42.122;24.746;2023-04-06T09:36:49;99115.34;;;34.39;19.75
2675;BME280;1347;42.122;24.746;2023-04-06T09:39:21;99123.41;;;33.66;18.86
2675;BME280;1347;42.122;24.746;2023-04-06T09:41:50;99124.25;;;32.74;19.84
2675;BME280;1347;42.122;24.746;2023-04-06T09:44:18;99097.06;;;33.28;19.66
2675;BME280;1347;42.122;24.746;2023-04-06T09:46:46;99119.34;;;33.61;19.73
2675;BME280;1347;42.122;24.746;2023-04-06T09:49:14;99129.59;;;33.88;19.35
2675;BME280;1347;42.122;24.746;2023-04-06T09:51:45;99110.09;;;32.93;19.69
2675;BME280;1347;42.122;24.746;2023-04-06T09:54:15;99094.00;;;33.63;19.19
2675;BME280;1347;42.122;24.746;2023-04-06T09:56:49;99117.97;;;34.95;19.16
2675;BME280;1347;42.122;24.746;2023-04-06T09:59:22;99108.66;;;35.68;17.83
2675;BME280;1347;42.122;24.746;2023-04-06T10:01:53;99115.97;;;35.90;18.59
2675;BME280;1347;42.122;24.746;2023-04-06T10:04:33;99113.72;;;36.72;18.55
2675;BME280;1347;42.122;24.746;2023-04-06T10:07:02;99103.03;;;33.24;19.35
2675;BME280;1347;42.122;24.746;2023-04-06T10:09:30;99104.59;;;33.81;19.27
2675;BME280;1347;42.122;24.746;2023-04-06T10:12:04;99101.59;;;32.03;20.25
2675;BME280;1347;42.122;24.746;2023-04-06T10:14:33;99097.03;;;32.30;20.09
2675;BME280;1347;42.122;24.746;2023-04-06T10:17:02;99086.22;;;31.46;19.71
2675;BME280;1347;42.122;24.746;2023-04-06T10:19:34;99096.63;;;31.33;20.28
2675;BME280;1347;42.122;24.746;2023-04-06T10:22:05;99081.94;;;32.71;19.49
2675;BME280;1347;42.122;24.746;2023-04-06T10:24:34;99086.00;;;33.61;19.16
2675;BME280;1347;42.122;24.746;2023-04-06T10:27:04;99090.06;;;33.66;19.30
2675;BME280;1347;42.122;24.746;2023-04-06T10:29:44;99094.34;;;34.23;19.33
2675;BME280;1347;42.122;24.746;2023-04-06T10:32:12;99083.44;;;33.20;19.94
2675;BME280;1347;42.122;24.746;2023-04-06T10:34:39;99071.81;;;33.00;19.32
2675;BME280;1347;42.122;24.746;2023-04-06T10:37:16;99072.75;;;32.35;19.91
2675;BME280;1347;42.122;24.746;2023-04-06T10:39:47;99067.25;;;31.30;20.57
2675;BME280;1347;42.122;24.746;2023-04-06T10:42:15;99068.47;;;28.47;22.20
2675;BME280;1347;42.122;24.746;2023-04-06T10:44:43;99068.41;;;28.36;22.37
2675;BME280;1347;42.122;24.746;2023-04-06T10:47:16;99058.16;;;27.09;23.03
2675;BME280;1347;42.122;24.746;2023-04-06T10:49:43;99037.28;;;26.40;23.10
2675;BME280;1347;42.122;24.746;2023-04-06T10:52:10;99054.03;;;26.49;23.66
2675;BME280;1347;42.122;24.746;2023-04-06T10:54:41;99046.97;;;26.74;23.67
2675;BME280;1347;42.122;24.746;2023-04-06T10:57:09;99050.75;;;26.71;23.55
2675;BME280;1347;42.122;24.746;2023-04-06T10:59:42;99051.66;;;25.54;24.90
2675;BME280;1347;42.122;24.746;2023-04-06T11:02:19;99046.88;;;24.35;25.24
2675;BME280;1347;42.122;24.746;2023-04-06T11:04:54;99030.47;;;24.19;24.97
2675;BME280;1347;42.122;24.746;2023-04-06T11:07:24;99039.81;;;23.46;26.51
2675;BME280;1347;42.122;24.746;2023-04-06T11:09:52;99042.22;;;24.41;25.18
2675;BME280;1347;42.122;24.746;2023-04-06T11:12:23;99032.28;;;24.31;25.79
2675;BME280;1347;42.122;24.746;2023-04-06T11:14:56;99025.66;;;24.52;25.80
2675;BME280;1347;42.122;24.746;2023-04-06T11:17:30;99025.03;;;25.49;24.67
2675;BME280;1347;42.122;24.746;2023-04-06T11:19:58;99008.88;;;26.03;23.88
2675;BME280;1347;42.122;24.746;2023-04-06T11:22:25;99024.97;;;25.88;24.67
2675;BME280;1347;42.122;24.746;2023-04-06T11:24:53;99021.66;;;24.92;25.04
2675;BME280;1347;42.122;24.746;2023-04-06T11:27:20;99018.31;;;24.13;25.69
2675;BME280;1347;42.122;24.746;2023-04-06T11:29:47;99027.03;;;23.73;26.78
2675;BME280;1347;42.122;24.746;2023-04-06T11:32:21;99031.25;;;22.59;26.58
2675;BME280;1347;42.122;24.746;2023-04-06T11:34:50;99012.72;;;21.19;28.26
2675;BME280;1347;42.122;24.746;2023-04-06T11:37:16;99002.22;;;21.76;28.48
2675;BME280;1347;42.122;24.746;2023-04-06T11:39:48;99011.09;;;23.00;26.76
2675;BME280;1347;42.122;24.746;2023-04-06T11:42:26;99011.31;;;22.38;26.77
2675;BME280;1347;42.122;24.746;2023-04-06T11:44:56;99003.88;;;20.65;27.71
2675;BME280;1347;42.122;24.746;2023-04-06T11:47:29;99017.09;;;20.13;29.68
2675;BME280;1347;42.122;24.746;2023-04-06T11:50:05;99010.59;;;20.54;29.12
2675;BME280;1347;42.122;24.746;2023-04-06T11:52:32;99010.59;;;21.23;29.13
2675;BME280;1347;42.122;24.746;2023-04-06T11:55:10;99015.84;;;20.40;29.64
2675;BME280;1347;42.122;24.746;2023-04-06T11:57:38;99009.59;;;19.85;30.18
2675;BME280;1347;42.122;24.746;2023-04-06T12:00:06;99009.28;;;19.29;31.22
2675;BME280;1347;42.122;24.746;2023-04-06T12:02:35;99001.47;;;18.66;31.59
2675;BME280;1347;42.122;24.746;2023-04-06T12:05:03;99006.34;;;18.29;31.96
2675;BME280;1347;42.122;24.746;2023-04-06T12:07:30;99004.16;;;18.21;32.59
2675;BME280;1347;42.122;24.746;2023-04-06T12:09:58;99000.81;;;17.77;33.20
2675;BME280;1347;42.122;24.746;2023-04-06T12:12:25;98990.41;;;17.65;33.17
2675;BME280;1347;42.122;24.746;2023-04-06T12:14:52;98999.75;;;17.71;33.82
2675;BME280;1347;42.122;24.746;2023-04-06T12:17:19;98996.47;;;17.40;34.27
2675;BME280;1347;42.122;24.746;2023-04-06T12:19:48;98991.03;;;17.53;33.67
2675;BME280;1347;42.122;24.746;2023-04-06T12:22:15;98999.25;;;17.76;34.28
2675;BME280;1347;42.122;24.746;2023-04-06T12:24:42;98987.94;;;18.19;32.82
2675;BME280;1347;42.122;24.746;2023-04-06T12:27:09;98994.53;;;18.25;33.12
2675;BME280;1347;42.122;24.746;2023-04-06T12:29:37;99003.97;;;18.44;32.26
2675;BME280;1347;42.122;24.746;2023-04-06T12:32:04;98996.00;;;17.97;33.53
2675;BME280;1347;42.122;24.746;2023-04-06T12:34:31;98995.63;;;17.79;34.11
2675;BME280;1347;42.122;24.746;2023-04-06T12:36:59;98998.28;;;17.47;34.26
2675;BME280;1347;42.122;24.746;2023-04-06T12:39:27;98994.75;;;17.26;34.50
2675;BME280;1347;42.122;24.746;2023-04-06T12:41:54;98988.84;;;17.24;34.83
2675;BME280;1347;42.122;24.746;2023-04-06T12:44:23;98983.47;;;17.17;34.63
2675;BME280;1347;42.122;24.746;2023-04-06T12:46:51;98995.16;;;16.85;34.73
2675;BME280;1347;42.122;24.746;2023-04-06T12:49:19;98983.72;;;16.64;35.03
2675;BME280;1347;42.122;24.746;2023-04-06T12:51:47;98985.63;;;16.67;35.45
2675;BME280;1347;42.122;24.746;2023-04-06T12:54:16;98985.69;;;16.63;35.88
2675;BME280;1347;42.122;24.746;2023-04-06T12:56:43;98990.13;;;16.80;34.27
2675;BME280;1347;42.122;24.746;2023-04-06T12:59:10;98973.28;;;17.30;33.93
2675;BME280;1347;42.122;24.746;2023-04-06T13:01:37;98982.09;;;17.81;33.34
2675;BME280;1347;42.122;24.746;2023-04-06T13:04:04;98990.22;;;17.72;33.93
2675;BME280;1347;42.122;24.746;2023-04-06T13:06:31;98980.34;;;16.96;34.41
2675;BME280;1347;42.122;24.746;2023-04-06T13:08:58;98972.47;;;16.94;34.34
2675;BME280;1347;42.122;24.746;2023-04-06T13:11:27;98978.69;;;16.55;35.48
2675;BME280;1347;42.122;24.746;2023-04-06T13:13:54;98968.41;;;16.09;35.33
2675;BME280;1347;42.122;24.746;2023-04-06T13:16:21;98978.50;;;15.69;36.73
2675;BME280;1347;42.122;24.746;2023-04-06T13:18:48;98973.72;;;15.42;36.41